sensor_id;sensor_type;location;lat;lon;timestamp;P1;durP1;ratioP1;P2;durP2;ratioP2
52458;SDS011;38372;52.902;6.024;2022-08-19T00:00:36;13.77;;;9.48;;
52458;SDS011;38372;52.902;6.024;2022-08-19T00:03:03;13.70;;;10.55;;
52458;SDS011;38372;52.902;6.024;2022-08-19T00:05:30;13.95;;;10.43;;
52458;SDS011;38372;52.902;6.024;2022-08-19T00:07:56;12.38;;;9.18;;
52458;SDS011;38372;52.902;6.024;2022-08-19T00:10:23;13.73;;;8.90;;
52458;SDS011;38372;52.902;6.024;2022-08-19T00:12:49;13.00;;;9.15;;
52458;SDS011;38372;52.902;6.024;2022-08-19T00:15:17;15.63;;;10.98;;
52458;SDS011;38372;52.902;6.024;2022-08-19T00:17:44;17.80;;;10.20;;
52458;SDS011;38372;52.902;6.024;2022-08-19T00:20:11;10.63;;;8.50;;
52458;SDS011;38372;52.902;6.024;2022-08-19T00:22:41;13.82;;;9.85;;
52458;SDS011;38372;52.902;6.024;2022-08-19T00:25:07;15.15;;;8.80;;
52458;SDS011;38372;52.902;6.024;2022-08-19T00:27:34;14.88;;;9.50;;
52458;SDS011;38372;52.902;6.024;2022-08-19T00:30:00;12.68;;;9.50;;
52458;SDS011;38372;52.902;6.024;2022-08-19T00:32:28;14.15;;;9.77;;
52458;SDS011;38372;52.902;6.024;2022-08-19T00:34:54;12.90;;;8.75;;
52458;SDS011;38372;52.902;6.024;2022-08-19T00:37:23;12.75;;;7.78;;
52458;SDS011;38372;52.902;6.024;2022-08-19T00:39:51;9.00;;;5.53;;
52458;SDS011;38372;52.902;6.024;2022-08-19T00:42:18;7.97;;;5.55;;
52458;SDS011;38372;52.902;6.024;2022-08-19T00:44:45;8.20;;;5.50;;
52458;SDS011;38372;52.902;6.024;2022-08-19T00:47:12;7.95;;;5.70;;
52458;SDS011;38372;52.902;6.024;2022-08-19T00:49:46;6.55;;;4.82;;
52458;SDS011;38372;52.902;6.024;2022-08-19T00:52:18;9.50;;;5.80;;
52458;SDS011;38372;52.902;6.024;2022-08-19T00:54:50;6.40;;;4.80;;
52458;SDS011;38372;52.902;6.024;2022-08-19T00:57:18;8.38;;;5.38;;
52458;SDS011;38372;52.902;6.024;2022-08-19T00:59:51;6.65;;;4.97;;
52458;SDS011;38372;52.902;6.024;2022-08-19T01:02:19;7.97;;;5.82;;
52458;SDS011;38372;52.902;6.024;2022-08-19T01:04:45;180.82;;;14.43;;
52458;SDS011;38372;52.902;6.024;2022-08-19T01:07:11;12.07;;;5.95;;
52458;SDS011;38372;52.902;6.024;2022-08-19T01:09:37;6.28;;;4.55;;
52458;SDS011;38372;52.902;6.024;2022-08-19T01:12:03;6.13;;;4.68;;
52458;SDS011;38372;52.902;6.024;2022-08-19T01:14:29;6.85;;;4.93;;
52458;SDS011;38372;52.902;6.024;2022-08-19T01:16:56;8.20;;;5.50;;
52458;SDS011;38372;52.902;6.024;2022-08-19T01:19:33;10.23;;;5.55;;
52458;SDS011;38372;52.902;6.024;2022-08-19T01:22:09;21.00;;;7.28;;
52458;SDS011;38372;52.902;6.024;2022-08-19T01:24:56;16.80;;;9.18;;
52458;SDS011;38372;52.902;6.024;2022-08-19T01:27:22;57.22;;;5.82;;
52458;SDS011;38372;52.902;6.024;2022-08-19T01:29:49;300.48;;;20.67;;
52458;SDS011;38372;52.902;6.024;2022-08-19T01:32:16;18.50;;;8.65;;
52458;SDS011;38372;52.902;6.024;2022-08-19T01:34:42;12.55;;;7.38;;
52458;SDS011;38372;52.902;6.024;2022-08-19T01:37:12;9.32;;;6.45;;
52458;SDS011;38372;52.902;6.024;2022-08-19T01:39:40;11.82;;;6.88;;
52458;SDS011;38372;52.902;6.024;2022-08-19T01:42:07;8.00;;;6.05;;
52458;SDS011;38372;52.902;6.024;2022-08-19T01:44:37;11.52;;;7.45;;
52458;SDS011;38372;52.902;6.024;2022-08-19T01:47:05;11.18;;;6.95;;
52458;SDS011;38372;52.902;6.024;2022-08-19T01:49:31;15.90;;;8.90;;
52458;SDS011;38372;52.902;6.024;2022-08-19T01:51:58;9.73;;;7.18;;
52458;SDS011;38372;52.902;6.024;2022-08-19T01:54:26;16.75;;;10.30;;
52458;SDS011;38372;52.902;6.024;2022-08-19T01:56:52;21.20;;;11.63;;
52458;SDS011;38372;52.902;6.024;2022-08-19T01:59:24;38.47;;;12.90;;
52458;SDS011;38372;52.902;6.024;2022-08-19T02:01:50;26.58;;;12.45;;
52458;SDS011;38372;52.902;6.024;2022-08-19T02:04:16;33.65;;;16.13;;
52458;SDS011;38372;52.902;6.024;2022-08-19T02:06:42;23.27;;;12.43;;
52458;SDS011;38372;52.902;6.024;2022-08-19T02:09:08;29.67;;;15.82;;
52458;SDS011;38372;52.902;6.024;2022-08-19T02:11:35;27.63;;;12.80;;
52458;SDS011;38372;52.902;6.024;2022-08-19T02:14:04;17.42;;;11.32;;
52458;SDS011;38372;52.902;6.024;2022-08-19T02:16:31;72.18;;;15.25;;
52458;SDS011;38372;52.902;6.024;2022-08-19T02:18:58;28.73;;;16.17;;
52458;SDS011;38372;52.902;6.024;2022-08-19T02:21:27;24.35;;;13.82;;
52458;SDS011;38372;52.902;6.024;2022-08-19T02:23:54;31.58;;;16.00;;
52458;SDS011;38372;52.902;6.024;2022-08-19T02:26:20;288.52;;;30.35;;
52458;SDS011;38372;52.902;6.024;2022-08-19T02:28:47;232.48;;;27.23;;
52458;SDS011;38372;52.902;6.024;2022-08-19T02:31:18;84.25;;;15.88;;
52458;SDS011;38372;52.902;6.024;2022-08-19T02:33:45;66.57;;;11.80;;
52458;SDS011;38372;52.902;6.024;2022-08-19T02:36:12;26.35;;;13.40;;
52458;SDS011;38372;52.902;6.024;2022-08-19T02:38:40;392.63;;;34.05;;
52458;SDS011;38372;52.902;6.024;2022-08-19T02:41:18;331.38;;;28.63;;
52458;SDS011;38372;52.902;6.024;2022-08-19T02:43:46;22.48;;;10.52;;
52458;SDS011;38372;52.902;6.024;2022-08-19T02:48:39;69.25;;;13.57;;
52458;SDS011;38372;52.902;6.024;2022-08-19T02:51:05;27.55;;;13.30;;
52458;SDS011;38372;52.902;6.024;2022-08-19T02:53:31;27.25;;;13.68;;
52458;SDS011;38372;52.902;6.024;2022-08-19T02:55:57;34.67;;;15.60;;
52458;SDS011;38372;52.902;6.024;2022-08-19T02:58:23;21.95;;;12.82;;
52458;SDS011;38372;52.902;6.024;2022-08-19T03:00:50;23.23;;;12.43;;
52458;SDS011;38372;52.902;6.024;2022-08-19T03:03:19;27.73;;;14.00;;
52458;SDS011;38372;52.902;6.024;2022-08-19T03:05:45;39.55;;;13.52;;
52458;SDS011;38372;52.902;6.024;2022-08-19T03:08:12;29.77;;;12.90;;
52458;SDS011;38372;52.902;6.024;2022-08-19T03:10:45;30.25;;;13.23;;
52458;SDS011;38372;52.902;6.024;2022-08-19T03:13:13;19.45;;;11.77;;
52458;SDS011;38372;52.902;6.024;2022-08-19T03:15:44;28.75;;;12.27;;
52458;SDS011;38372;52.902;6.024;2022-08-19T03:18:12;27.02;;;12.85;;
52458;SDS011;38372;52.902;6.024;2022-08-19T03:20:45;140.27;;;19.60;;
52458;SDS011;38372;52.902;6.024;2022-08-19T03:23:14;20.05;;;9.65;;
52458;SDS011;38372;52.902;6.024;2022-08-19T03:25:42;139.02;;;20.30;;
52458;SDS011;38372;52.902;6.024;2022-08-19T03:28:10;16.55;;;9.60;;
52458;SDS011;38372;52.902;6.024;2022-08-19T03:30:38;15.68;;;10.25;;
52458;SDS011;38372;52.902;6.024;2022-08-19T03:33:07;21.27;;;11.57;;
52458;SDS011;38372;52.902;6.024;2022-08-19T03:35:34;17.23;;;11.18;;
52458;SDS011;38372;52.902;6.024;2022-08-19T03:38:04;22.02;;;12.77;;
52458;SDS011;38372;52.902;6.024;2022-08-19T03:40:31;36.88;;;15.02;;
52458;SDS011;38372;52.902;6.024;2022-08-19T03:43:00;43.53;;;16.67;;
52458;SDS011;38372;52.902;6.024;2022-08-19T03:45:26;33.67;;;16.33;;
52458;SDS011;38372;52.902;6.024;2022-08-19T03:47:52;60.63;;;20.35;;
52458;SDS011;38372;52.902;6.024;2022-08-19T03:50:18;51.45;;;19.80;;
52458;SDS011;38372;52.902;6.024;2022-08-19T03:52:48;54.78;;;19.65;;
52458;SDS011;38372;52.902;6.024;2022-08-19T03:55:15;55.53;;;20.08;;
52458;SDS011;38372;52.902;6.024;2022-08-19T03:57:42;32.13;;;16.85;;
52458;SDS011;38372;52.902;6.024;2022-08-19T04:00:08;49.13;;;19.50;;
52458;SDS011;38372;52.902;6.024;2022-08-19T04:02:35;81.03;;;24.08;;
52458;SDS011;38372;52.902;6.024;2022-08-19T04:05:00;276.73;;;32.15;;
52458;SDS011;38372;52.902;6.024;2022-08-19T04:07:26;48.30;;;19.50;;
52458;SDS011;38372;52.902;6.024;2022-08-19T04:09:52;59.28;;;23.08;;
52458;SDS011;38372;52.902;6.024;2022-08-19T04:12:18;60.05;;;22.65;;
52458;SDS011;38372;52.902;6.024;2022-08-19T04:14:45;60.83;;;23.23;;
52458;SDS011;38372;52.902;6.024;2022-08-19T04:17:11;56.60;;;21.67;;
52458;SDS011;38372;52.902;6.024;2022-08-19T04:19:39;58.20;;;21.95;;
52458;SDS011;38372;52.902;6.024;2022-08-19T04:22:06;50.38;;;22.00;;
52458;SDS011;38372;52.902;6.024;2022-08-19T04:24:32;76.10;;;23.77;;
52458;SDS011;38372;52.902;6.024;2022-08-19T04:27:02;47.33;;;21.15;;
52458;SDS011;38372;52.902;6.024;2022-08-19T04:29:28;158.23;;;29.27;;
52458;SDS011;38372;52.902;6.024;2022-08-19T04:31:55;62.05;;;22.35;;
52458;SDS011;38372;52.902;6.024;2022-08-19T04:34:22;52.25;;;20.33;;
52458;SDS011;38372;52.902;6.024;2022-08-19T04:36:50;60.42;;;22.13;;
52458;SDS011;38372;52.902;6.024;2022-08-19T04:39:18;41.30;;;18.92;;
52458;SDS011;38372;52.902;6.024;2022-08-19T04:41:47;35.55;;;17.83;;
52458;SDS011;38372;52.902;6.024;2022-08-19T04:44:32;51.42;;;20.48;;
52458;SDS011;38372;52.902;6.024;2022-08-19T04:46:59;34.90;;;18.23;;
52458;SDS011;38372;52.902;6.024;2022-08-19T04:49:25;55.80;;;21.58;;
52458;SDS011;38372;52.902;6.024;2022-08-19T04:51:52;39.25;;;18.55;;
52458;SDS011;38372;52.902;6.024;2022-08-19T04:54:20;36.72;;;18.13;;
52458;SDS011;38372;52.902;6.024;2022-08-19T04:56:48;46.90;;;20.35;;
52458;SDS011;38372;52.902;6.024;2022-08-19T04:59:15;61.28;;;21.02;;
52458;SDS011;38372;52.902;6.024;2022-08-19T05:01:43;36.72;;;17.63;;
52458;SDS011;38372;52.902;6.024;2022-08-19T05:04:14;44.40;;;18.90;;
52458;SDS011;38372;52.902;6.024;2022-08-19T05:06:42;49.97;;;19.50;;
52458;SDS011;38372;52.902;6.024;2022-08-19T05:09:08;35.28;;;17.25;;
52458;SDS011;38372;52.902;6.024;2022-08-19T05:11:36;29.75;;;16.92;;
52458;SDS011;38372;52.902;6.024;2022-08-19T05:14:06;48.05;;;21.38;;
52458;SDS011;38372;52.902;6.024;2022-08-19T05:16:33;50.65;;;21.65;;
52458;SDS011;38372;52.902;6.024;2022-08-19T05:18:59;50.63;;;21.10;;
52458;SDS011;38372;52.902;6.024;2022-08-19T05:21:43;33.63;;;19.13;;
52458;SDS011;38372;52.902;6.024;2022-08-19T05:24:28;47.90;;;20.70;;
52458;SDS011;38372;52.902;6.024;2022-08-19T05:26:55;50.83;;;21.58;;
52458;SDS011;38372;52.902;6.024;2022-08-19T05:29:25;43.30;;;21.85;;
52458;SDS011;38372;52.902;6.024;2022-08-19T05:31:52;45.67;;;21.65;;
52458;SDS011;38372;52.902;6.024;2022-08-19T05:34:19;46.65;;;23.60;;
52458;SDS011;38372;52.902;6.024;2022-08-19T05:36:48;45.08;;;23.00;;
52458;SDS011;38372;52.902;6.024;2022-08-19T05:39:17;51.08;;;25.60;;
52458;SDS011;38372;52.902;6.024;2022-08-19T05:41:46;44.58;;;23.13;;
52458;SDS011;38372;52.902;6.024;2022-08-19T05:44:15;45.38;;;23.20;;
52458;SDS011;38372;52.902;6.024;2022-08-19T05:46:43;48.13;;;23.92;;
52458;SDS011;38372;52.902;6.024;2022-08-19T05:49:12;43.40;;;22.93;;
52458;SDS011;38372;52.902;6.024;2022-08-19T05:51:40;40.65;;;22.38;;
52458;SDS011;38372;52.902;6.024;2022-08-19T05:54:06;40.30;;;22.25;;
52458;SDS011;38372;52.902;6.024;2022-08-19T05:56:33;38.17;;;22.33;;
52458;SDS011;38372;52.902;6.024;2022-08-19T05:59:03;36.17;;;22.33;;
52458;SDS011;38372;52.902;6.024;2022-08-19T06:01:33;37.97;;;21.20;;
52458;SDS011;38372;52.902;6.024;2022-08-19T06:04:00;37.38;;;22.65;;
52458;SDS011;38372;52.902;6.024;2022-08-19T06:06:27;39.72;;;22.75;;
52458;SDS011;38372;52.902;6.024;2022-08-19T06:08:53;38.13;;;22.38;;
52458;SDS011;38372;52.902;6.024;2022-08-19T06:11:20;34.13;;;22.65;;
52458;SDS011;38372;52.902;6.024;2022-08-19T06:13:47;35.45;;;21.60;;
52458;SDS011;38372;52.902;6.024;2022-08-19T06:16:16;30.90;;;21.38;;
52458;SDS011;38372;52.902;6.024;2022-08-19T06:18:47;29.25;;;20.05;;
52458;SDS011;38372;52.902;6.024;2022-08-19T06:21:17;24.83;;;18.65;;
52458;SDS011;38372;52.902;6.024;2022-08-19T06:23:47;23.38;;;17.85;;
52458;SDS011;38372;52.902;6.024;2022-08-19T06:26:15;20.05;;;14.93;;
52458;SDS011;38372;52.902;6.024;2022-08-19T06:28:41;19.38;;;15.13;;
52458;SDS011;38372;52.902;6.024;2022-08-19T06:34:46;22.55;;;15.05;;
52458;SDS011;38372;52.902;6.024;2022-08-19T06:37:12;17.52;;;14.50;;
52458;SDS011;38372;52.902;6.024;2022-08-19T06:39:39;18.00;;;14.68;;
52458;SDS011;38372;52.902;6.024;2022-08-19T06:42:07;20.77;;;14.27;;
52458;SDS011;38372;52.902;6.024;2022-08-19T06:44:37;16.10;;;13.87;;
52458;SDS011;38372;52.902;6.024;2022-08-19T06:47:05;14.45;;;12.63;;
52458;SDS011;38372;52.902;6.024;2022-08-19T06:49:32;16.77;;;13.07;;
52458;SDS011;38372;52.902;6.024;2022-08-19T06:51:59;16.30;;;13.95;;
52458;SDS011;38372;52.902;6.024;2022-08-19T06:54:26;15.00;;;12.73;;
52458;SDS011;38372;52.902;6.024;2022-08-19T06:56:54;18.27;;;14.27;;
52458;SDS011;38372;52.902;6.024;2022-08-19T06:59:24;15.63;;;12.10;;
52458;SDS011;38372;52.902;6.024;2022-08-19T07:01:53;17.23;;;13.18;;
52458;SDS011;38372;52.902;6.024;2022-08-19T07:04:24;15.23;;;13.45;;
52458;SDS011;38372;52.902;6.024;2022-08-19T07:07:12;15.55;;;12.55;;
52458;SDS011;38372;52.902;6.024;2022-08-19T07:09:42;15.45;;;12.32;;
52458;SDS011;38372;52.902;6.024;2022-08-19T07:12:10;15.02;;;13.07;;
52458;SDS011;38372;52.902;6.024;2022-08-19T07:14:38;15.55;;;13.48;;
52458;SDS011;38372;52.902;6.024;2022-08-19T07:17:06;18.35;;;14.32;;
52458;SDS011;38372;52.902;6.024;2022-08-19T07:19:34;16.00;;;13.30;;
52458;SDS011;38372;52.902;6.024;2022-08-19T07:22:02;15.48;;;13.45;;
52458;SDS011;38372;52.902;6.024;2022-08-19T07:24:30;15.13;;;13.40;;
52458;SDS011;38372;52.902;6.024;2022-08-19T07:26:58;15.95;;;14.30;;
52458;SDS011;38372;52.902;6.024;2022-08-19T07:29:26;16.98;;;13.13;;
52458;SDS011;38372;52.902;6.024;2022-08-19T07:31:54;18.58;;;14.75;;
52458;SDS011;38372;52.902;6.024;2022-08-19T07:34:22;20.27;;;17.13;;
52458;SDS011;38372;52.902;6.024;2022-08-19T07:36:49;17.45;;;15.30;;
52458;SDS011;38372;52.902;6.024;2022-08-19T07:39:20;19.00;;;16.38;;
52458;SDS011;38372;52.902;6.024;2022-08-19T07:41:51;19.70;;;17.17;;
52458;SDS011;38372;52.902;6.024;2022-08-19T07:44:17;18.10;;;15.90;;
52458;SDS011;38372;52.902;6.024;2022-08-19T07:46:46;21.80;;;17.33;;
52458;SDS011;38372;52.902;6.024;2022-08-19T07:49:14;24.40;;;19.35;;
52458;SDS011;38372;52.902;6.024;2022-08-19T07:54:14;21.48;;;18.67;;
52458;SDS011;38372;52.902;6.024;2022-08-19T07:56:41;23.33;;;20.02;;
52458;SDS011;38372;52.902;6.024;2022-08-19T07:59:06;20.90;;;18.67;;
52458;SDS011;38372;52.902;6.024;2022-08-19T08:01:34;21.67;;;19.10;;
52458;SDS011;38372;52.902;6.024;2022-08-19T08:04:00;22.95;;;19.80;;
52458;SDS011;38372;52.902;6.024;2022-08-19T08:06:45;21.30;;;18.38;;
52458;SDS011;38372;52.902;6.024;2022-08-19T08:09:34;23.15;;;20.75;;
52458;SDS011;38372;52.902;6.024;2022-08-19T08:12:06;21.05;;;18.95;;
52458;SDS011;38372;52.902;6.024;2022-08-19T08:14:46;20.10;;;18.08;;
52458;SDS011;38372;52.902;6.024;2022-08-19T08:17:18;22.83;;;19.45;;
52458;SDS011;38372;52.902;6.024;2022-08-19T08:19:45;22.95;;;20.45;;
52458;SDS011;38372;52.902;6.024;2022-08-19T08:22:14;20.75;;;18.65;;
52458;SDS011;38372;52.902;6.024;2022-08-19T08:25:04;21.13;;;18.92;;
52458;SDS011;38372;52.902;6.024;2022-08-19T08:27:35;21.77;;;19.42;;
52458;SDS011;38372;52.902;6.024;2022-08-19T08:30:05;21.52;;;19.33;;
52458;SDS011;38372;52.902;6.024;2022-08-19T08:32:37;21.20;;;18.98;;
52458;SDS011;38372;52.902;6.024;2022-08-19T08:35:05;21.83;;;18.92;;
52458;SDS011;38372;52.902;6.024;2022-08-19T08:37:32;20.98;;;18.42;;
52458;SDS011;38372;52.902;6.024;2022-08-19T08:39:58;22.25;;;19.95;;
52458;SDS011;38372;52.902;6.024;2022-08-19T08:42:27;22.42;;;19.00;;
52458;SDS011;38372;52.902;6.024;2022-08-19T08:45:04;21.05;;;18.88;;
52458;SDS011;38372;52.902;6.024;2022-08-19T08:48:00;20.05;;;16.27;;
52458;SDS011;38372;52.902;6.024;2022-08-19T08:50:37;21.88;;;19.58;;
52458;SDS011;38372;52.902;6.024;2022-08-19T08:53:06;21.17;;;18.52;;
52458;SDS011;38372;52.902;6.024;2022-08-19T08:55:33;20.17;;;17.80;;
52458;SDS011;38372;52.902;6.024;2022-08-19T09:00:28;19.40;;;17.38;;
52458;SDS011;38372;52.902;6.024;2022-08-19T09:02:57;17.70;;;15.93;;
52458;SDS011;38372;52.902;6.024;2022-08-19T09:05:30;18.63;;;16.77;;
52458;SDS011;38372;52.902;6.024;2022-08-19T09:08:13;17.17;;;15.10;;
52458;SDS011;38372;52.902;6.024;2022-08-19T09:10:52;18.67;;;16.60;;
52458;SDS011;38372;52.902;6.024;2022-08-19T09:16:37;17.00;;;15.25;;
52458;SDS011;38372;52.902;6.024;2022-08-19T09:19:05;18.55;;;15.82;;
52458;SDS011;38372;52.902;6.024;2022-08-19T09:21:33;16.15;;;13.65;;
52458;SDS011;38372;52.902;6.024;2022-08-19T09:24:02;18.80;;;13.20;;
52458;SDS011;38372;52.902;6.024;2022-08-19T09:26:30;17.17;;;12.82;;
52458;SDS011;38372;52.902;6.024;2022-08-19T09:28:57;17.92;;;13.30;;
52458;SDS011;38372;52.902;6.024;2022-08-19T09:31:28;14.90;;;12.18;;
52458;SDS011;38372;52.902;6.024;2022-08-19T09:33:55;15.48;;;12.20;;
52458;SDS011;38372;52.902;6.024;2022-08-19T09:36:26;15.40;;;11.65;;
52458;SDS011;38372;52.902;6.024;2022-08-19T09:38:54;16.15;;;12.43;;
52458;SDS011;38372;52.902;6.024;2022-08-19T09:41:22;12.98;;;10.13;;
52458;SDS011;38372;52.902;6.024;2022-08-19T09:43:50;12.93;;;10.27;;
52458;SDS011;38372;52.902;6.024;2022-08-19T09:46:18;14.25;;;10.73;;
52458;SDS011;38372;52.902;6.024;2022-08-19T09:48:46;12.75;;;9.52;;
52458;SDS011;38372;52.902;6.024;2022-08-19T09:51:14;11.65;;;7.60;;
52458;SDS011;38372;52.902;6.024;2022-08-19T09:53:43;9.60;;;7.82;;
52458;SDS011;38372;52.902;6.024;2022-08-19T09:56:10;13.50;;;7.53;;
52458;SDS011;38372;52.902;6.024;2022-08-19T09:58:36;10.23;;;8.10;;
52458;SDS011;38372;52.902;6.024;2022-08-19T10:01:03;9.35;;;7.15;;
52458;SDS011;38372;52.902;6.024;2022-08-19T10:03:30;8.85;;;6.88;;
52458;SDS011;38372;52.902;6.024;2022-08-19T10:05:59;12.73;;;9.70;;
52458;SDS011;38372;52.902;6.024;2022-08-19T10:08:28;9.13;;;8.15;;
52458;SDS011;38372;52.902;6.024;2022-08-19T10:10:56;11.52;;;9.23;;
52458;SDS011;38372;52.902;6.024;2022-08-19T10:13:24;11.23;;;8.32;;
52458;SDS011;38372;52.902;6.024;2022-08-19T10:15:52;11.07;;;9.48;;
52458;SDS011;38372;52.902;6.024;2022-08-19T10:18:21;12.95;;;11.50;;
52458;SDS011;38372;52.902;6.024;2022-08-19T10:20:48;15.23;;;10.93;;
52458;SDS011;38372;52.902;6.024;2022-08-19T10:23:16;11.90;;;9.40;;
52458;SDS011;38372;52.902;6.024;2022-08-19T10:25:42;12.63;;;10.90;;
52458;SDS011;38372;52.902;6.024;2022-08-19T10:28:08;12.73;;;10.50;;
52458;SDS011;38372;52.902;6.024;2022-08-19T10:30:37;12.15;;;10.68;;
52458;SDS011;38372;52.902;6.024;2022-08-19T10:33:05;11.20;;;9.75;;
52458;SDS011;38372;52.902;6.024;2022-08-19T10:35:31;11.60;;;9.27;;
52458;SDS011;38372;52.902;6.024;2022-08-19T10:37:58;17.65;;;11.25;;
52458;SDS011;38372;52.902;6.024;2022-08-19T10:40:24;12.30;;;10.98;;
52458;SDS011;38372;52.902;6.024;2022-08-19T10:42:52;16.25;;;10.70;;
52458;SDS011;38372;52.902;6.024;2022-08-19T10:45:18;12.18;;;10.85;;
52458;SDS011;38372;52.902;6.024;2022-08-19T10:47:47;15.68;;;12.10;;
52458;SDS011;38372;52.902;6.024;2022-08-19T10:50:13;12.25;;;9.88;;
52458;SDS011;38372;52.902;6.024;2022-08-19T10:52:57;11.45;;;10.13;;
52458;SDS011;38372;52.902;6.024;2022-08-19T10:55:27;13.52;;;12.05;;
52458;SDS011;38372;52.902;6.024;2022-08-19T10:58:13;13.98;;;10.98;;
52458;SDS011;38372;52.902;6.024;2022-08-19T11:00:41;17.00;;;12.30;;
52458;SDS011;38372;52.902;6.024;2022-08-19T11:03:08;15.73;;;14.13;;
52458;SDS011;38372;52.902;6.024;2022-08-19T11:05:34;18.67;;;13.95;;
52458;SDS011;38372;52.902;6.024;2022-08-19T11:08:02;18.50;;;13.33;;
52458;SDS011;38372;52.902;6.024;2022-08-19T11:10:28;14.80;;;12.85;;
52458;SDS011;38372;52.902;6.024;2022-08-19T11:12:54;15.98;;;12.35;;
52458;SDS011;38372;52.902;6.024;2022-08-19T11:15:20;15.05;;;12.82;;
52458;SDS011;38372;52.902;6.024;2022-08-19T11:17:46;17.40;;;14.52;;
52458;SDS011;38372;52.902;6.024;2022-08-19T11:20:13;19.95;;;16.27;;
52458;SDS011;38372;52.902;6.024;2022-08-19T11:22:40;18.17;;;14.38;;
52458;SDS011;38372;52.902;6.024;2022-08-19T11:25:07;16.45;;;14.75;;
52458;SDS011;38372;52.902;6.024;2022-08-19T11:27:37;16.88;;;14.60;;
52458;SDS011;38372;52.902;6.024;2022-08-19T11:30:07;21.13;;;16.92;;
52458;SDS011;38372;52.902;6.024;2022-08-19T11:32:35;18.27;;;16.27;;
52458;SDS011;38372;52.902;6.024;2022-08-19T11:35:01;18.85;;;15.43;;
52458;SDS011;38372;52.902;6.024;2022-08-19T11:37:27;19.52;;;17.08;;
52458;SDS011;38372;52.902;6.024;2022-08-19T11:39:53;18.95;;;16.75;;
52458;SDS011;38372;52.902;6.024;2022-08-19T11:42:19;22.30;;;18.27;;
52458;SDS011;38372;52.902;6.024;2022-08-19T11:45:03;22.20;;;19.85;;
52458;SDS011;38372;52.902;6.024;2022-08-19T11:47:29;24.25;;;21.08;;
52458;SDS011;38372;52.902;6.024;2022-08-19T11:49:55;22.10;;;17.48;;
52458;SDS011;38372;52.902;6.024;2022-08-19T11:52:21;21.60;;;18.75;;
52458;SDS011;38372;52.902;6.024;2022-08-19T11:54:47;21.88;;;17.58;;
52458;SDS011;38372;52.902;6.024;2022-08-19T11:57:13;19.80;;;16.58;;
52458;SDS011;38372;52.902;6.024;2022-08-19T11:59:42;21.33;;;19.10;;
52458;SDS011;38372;52.902;6.024;2022-08-19T12:02:12;22.98;;;18.60;;
52458;SDS011;38372;52.902;6.024;2022-08-19T12:04:40;24.30;;;15.90;;
52458;SDS011;38372;52.902;6.024;2022-08-19T12:07:06;19.67;;;17.17;;
52458;SDS011;38372;52.902;6.024;2022-08-19T12:09:32;20.92;;;16.17;;
52458;SDS011;38372;52.902;6.024;2022-08-19T12:11:59;20.33;;;17.02;;
52458;SDS011;38372;52.902;6.024;2022-08-19T12:14:27;19.30;;;16.98;;
52458;SDS011;38372;52.902;6.024;2022-08-19T12:16:55;24.02;;;19.02;;
52458;SDS011;38372;52.902;6.024;2022-08-19T12:19:21;25.42;;;20.50;;
52458;SDS011;38372;52.902;6.024;2022-08-19T12:21:47;26.42;;;20.92;;
52458;SDS011;38372;52.902;6.024;2022-08-19T12:24:13;24.95;;;21.13;;
52458;SDS011;38372;52.902;6.024;2022-08-19T12:26:39;24.27;;;20.45;;
52458;SDS011;38372;52.902;6.024;2022-08-19T12:29:05;23.90;;;18.27;;
52458;SDS011;38372;52.902;6.024;2022-08-19T12:31:32;19.70;;;17.02;;
52458;SDS011;38372;52.902;6.024;2022-08-19T12:33:58;26.73;;;21.33;;
52458;SDS011;38372;52.902;6.024;2022-08-19T12:36:24;27.35;;;19.73;;
52458;SDS011;38372;52.902;6.024;2022-08-19T12:38:50;23.08;;;18.60;;
52458;SDS011;38372;52.902;6.024;2022-08-19T12:41:17;27.83;;;19.30;;
52458;SDS011;38372;52.902;6.024;2022-08-19T12:43:45;25.42;;;18.65;;
52458;SDS011;38372;52.902;6.024;2022-08-19T12:46:11;29.67;;;20.48;;
52458;SDS011;38372;52.902;6.024;2022-08-19T12:48:37;22.70;;;20.42;;
52458;SDS011;38372;52.902;6.024;2022-08-19T12:51:07;25.48;;;20.88;;
52458;SDS011;38372;52.902;6.024;2022-08-19T12:53:35;27.02;;;20.92;;
52458;SDS011;38372;52.902;6.024;2022-08-19T12:56:02;24.15;;;21.05;;
52458;SDS011;38372;52.902;6.024;2022-08-19T12:58:30;26.80;;;21.80;;
52458;SDS011;38372;52.902;6.024;2022-08-19T13:00:56;24.25;;;20.77;;
52458;SDS011;38372;52.902;6.024;2022-08-19T13:03:22;24.48;;;20.63;;
52458;SDS011;38372;52.902;6.024;2022-08-19T13:05:54;22.35;;;18.10;;
52458;SDS011;38372;52.902;6.024;2022-08-19T13:08:20;22.35;;;17.58;;
52458;SDS011;38372;52.902;6.024;2022-08-19T13:10:46;25.02;;;17.80;;
52458;SDS011;38372;52.902;6.024;2022-08-19T13:13:12;22.20;;;18.05;;
52458;SDS011;38372;52.902;6.024;2022-08-19T13:15:39;20.08;;;15.98;;
52458;SDS011;38372;52.902;6.024;2022-08-19T13:18:07;19.05;;;16.15;;
52458;SDS011;38372;52.902;6.024;2022-08-19T13:20:36;25.63;;;20.10;;
52458;SDS011;38372;52.902;6.024;2022-08-19T13:23:02;25.50;;;22.13;;
52458;SDS011;38372;52.902;6.024;2022-08-19T13:25:29;25.95;;;21.70;;
52458;SDS011;38372;52.902;6.024;2022-08-19T13:27:54;25.17;;;22.05;;
52458;SDS011;38372;52.902;6.024;2022-08-19T13:30:20;28.63;;;22.65;;
52458;SDS011;38372;52.902;6.024;2022-08-19T13:33:06;26.13;;;23.13;;
52458;SDS011;38372;52.902;6.024;2022-08-19T13:35:36;25.73;;;21.60;;
52458;SDS011;38372;52.902;6.024;2022-08-19T13:38:07;28.00;;;22.30;;
52458;SDS011;38372;52.902;6.024;2022-08-19T13:40:33;26.35;;;21.15;;
52458;SDS011;38372;52.902;6.024;2022-08-19T13:42:59;22.23;;;17.63;;
52458;SDS011;38372;52.902;6.024;2022-08-19T13:45:27;21.65;;;16.88;;
52458;SDS011;38372;52.902;6.024;2022-08-19T13:47:55;20.05;;;15.55;;
52458;SDS011;38372;52.902;6.024;2022-08-19T13:50:23;18.98;;;14.93;;
52458;SDS011;38372;52.902;6.024;2022-08-19T13:52:52;16.80;;;13.18;;
52458;SDS011;38372;52.902;6.024;2022-08-19T13:55:19;16.95;;;14.10;;
52458;SDS011;38372;52.902;6.024;2022-08-19T13:57:45;21.63;;;16.25;;
52458;SDS011;38372;52.902;6.024;2022-08-19T14:00:16;26.92;;;19.25;;
52458;SDS011;38372;52.902;6.024;2022-08-19T14:02:44;23.85;;;18.85;;
52458;SDS011;38372;52.902;6.024;2022-08-19T14:05:13;25.67;;;20.40;;
52458;SDS011;38372;52.902;6.024;2022-08-19T14:07:41;23.25;;;19.02;;
52458;SDS011;38372;52.902;6.024;2022-08-19T14:10:08;25.50;;;19.42;;
52458;SDS011;38372;52.902;6.024;2022-08-19T14:12:35;25.80;;;18.55;;
52458;SDS011;38372;52.902;6.024;2022-08-19T14:15:02;27.60;;;19.55;;
52458;SDS011;38372;52.902;6.024;2022-08-19T14:17:29;25.33;;;18.02;;
52458;SDS011;38372;52.902;6.024;2022-08-19T14:19:58;17.23;;;15.43;;
52458;SDS011;38372;52.902;6.024;2022-08-19T14:22:29;21.77;;;16.55;;
52458;SDS011;38372;52.902;6.024;2022-08-19T14:24:58;25.75;;;20.23;;
52458;SDS011;38372;52.902;6.024;2022-08-19T14:27:24;25.88;;;19.20;;
52458;SDS011;38372;52.902;6.024;2022-08-19T14:29:53;23.75;;;18.05;;
52458;SDS011;38372;52.902;6.024;2022-08-19T14:34:49;25.25;;;14.50;;
52458;SDS011;38372;52.902;6.024;2022-08-19T14:37:16;22.45;;;13.40;;
52458;SDS011;38372;52.902;6.024;2022-08-19T14:39:42;17.02;;;12.77;;
52458;SDS011;38372;52.902;6.024;2022-08-19T14:42:10;16.02;;;10.43;;
52458;SDS011;38372;52.902;6.024;2022-08-19T14:44:36;13.65;;;9.68;;
52458;SDS011;38372;52.902;6.024;2022-08-19T14:47:03;12.38;;;9.68;;